Time;durP1;ratioP1;P1;durP2;ratioP2;P2;SDS_P1;SDS_P2;PMS_P1;PMS_P2;Temp;Humidity;BMP_temperature;BMP_pressure;BME280_temperature;BME280_humidity;BME280_pressure;Samples;Min_cycle;Max_cycle;Signal;HPM_P1;HPM_P2
2021/04/18 00:02:16;;;;;;;10.65;4.03;;;8.10;99.90;;;;;;5052141;28;20163;-59
2021/04/18 00:04:42;;;;;;;9.88;4.88;;;8.10;99.90;;;;;;5051784;28;20036;-58
2021/04/18 00:07:08;;;;;;;15.25;5.20;;;8.10;99.90;;;;;;5050170;28;20107;-57
2021/04/18 00:09:33;;;;;;;12.93;4.13;;;8.10;99.90;;;;;;5051459;28;20020;-58
2021/04/18 00:11:59;;;;;;;12.20;4.28;;;8.10;99.90;;;;;;5051789;28;20021;-57
2021/04/18 00:14:25;;;;;;;12.30;4.45;;;8.10;99.90;;;;;;5050236;28;20071;-56
2021/04/18 00:16:52;;;;;;;7.07;3.67;;;8.10;99.90;;;;;;5051858;28;20025;-57
2021/04/18 00:19:18;;;;;;;13.25;4.60;;;7.90;99.90;;;;;;5052080;28;20450;-58
2021/04/18 00:21:44;;;;;;;13.43;4.47;;;7.90;99.90;;;;;;5051285;28;20482;-55
2021/04/18 00:24:10;;;;;;;19.25;4.72;;;7.80;99.90;;;;;;5047302;28;20035;-57
2021/04/18 00:26:36;;;;;;;7.38;3.40;;;7.70;99.90;;;;;;5051805;28;20025;-58
2021/04/18 00:29:02;;;;;;;10.25;4.03;;;7.60;99.90;;;;;;5051045;28;20044;-58
2021/04/18 00:31:27;;;;;;;15.90;4.95;;;7.60;99.90;;;;;;5051680;28;20108;-60
2021/04/18 00:33:53;;;;;;;14.68;4.18;;;7.60;99.90;;;;;;5051311;28;20068;-59
2021/04/18 00:36:18;;;;;;;11.07;3.67;;;7.70;99.90;;;;;;5051129;28;20052;-58
2021/04/18 00:38:44;;;;;;;8.15;3.80;;;7.70;99.90;;;;;;5050827;28;20036;-58
2021/04/18 00:41:10;;;;;;;9.55;4.78;;;7.70;99.90;;;;;;5048340;28;20056;-59
2021/04/18 00:43:42;;;;;;;14.18;4.38;;;7.70;99.90;;;;;;5050539;28;20033;-58
2021/04/18 00:46:10;;;;;;;11.35;4.40;;;7.70;99.90;;;;;;5051207;28;20108;-56
2021/04/18 00:48:40;;;;;;;10.63;4.13;;;7.50;99.90;;;;;;5051483;28;20467;-55
2021/04/18 00:51:06;;;;;;;13.95;4.10;;;7.40;99.90;;;;;;5051608;28;20025;-57
2021/04/18 00:53:31;;;;;;;10.48;4.40;;;7.20;99.90;;;;;;5051033;28;20524;-57
2021/04/18 00:55:57;;;;;;;9.93;4.10;;;7.00;99.90;;;;;;5049770;28;20064;-57
2021/04/18 00:58:23;;;;;;;9.10;4.00;;;6.90;99.90;;;;;;5051566;28;20124;-55
2021/04/18 01:00:48;;;;;;;14.55;4.97;;;6.70;99.90;;;;;;5051119;28;20025;-58
2021/04/18 01:03:14;;;;;;;19.33;5.45;;;6.60;99.90;;;;;;5051020;28;20163;-57
2021/04/18 01:05:39;;;;;;;10.43;3.83;;;6.40;99.90;;;;;;5065054;22;20096;-51
2021/04/18 01:08:09;;;;;;;18.63;5.63;;;6.30;99.90;;;;;;5048317;28;20443;-49
2021/04/18 01:10:35;;;;;;;11.10;4.40;;;6.10;99.90;;;;;;5046242;28;20021;-50
2021/04/18 01:13:00;;;;;;;10.98;4.32;;;6.00;99.90;;;;;;5047179;28;20033;-50
2021/04/18 01:15:26;;;;;;;13.98;4.25;;;6.00;99.90;;;;;;5047934;28;20068;-49
2021/04/18 01:17:51;;;;;;;11.32;4.20;;;5.90;99.90;;;;;;5049079;28;20041;-49
2021/04/18 01:20:21;;;;;;;12.35;4.05;;;5.90;99.90;;;;;;5049469;28;20029;-51
2021/04/18 01:22:48;;;;;;;14.02;4.68;;;6.10;99.90;;;;;;5044433;28;20026;-54
2021/04/18 01:25:14;;;;;;;12.32;3.90;;;6.20;99.90;;;;;;5031305;28;20100;-55
2021/04/18 01:27:43;;;;;;;16.15;3.75;;;6.40;99.90;;;;;;5045752;28;20399;-52
2021/04/18 01:30:11;;;;;;;15.50;4.40;;;6.60;99.90;;;;;;5047655;28;20483;-51
2021/04/18 01:32:38;;;;;;;8.93;5.43;;;6.60;99.90;;;;;;5048975;28;20079;-53
2021/04/18 01:35:05;;;;;;;14.55;4.82;;;6.50;99.90;;;;;;5048712;28;20078;-56
2021/04/18 01:37:31;;;;;;;9.88;4.03;;;6.30;99.90;;;;;;5040888;28;20057;-56
2021/04/18 01:39:57;;;;;;;8.88;4.60;;;6.20;99.90;;;;;;5047276;28;20100;-55
2021/04/18 01:42:23;;;;;;;11.65;5.38;;;6.10;99.90;;;;;;5046889;28;20125;-56
2021/04/18 01:44:49;;;;;;;11.80;4.30;;;6.00;99.90;;;;;;5049860;28;20577;-56
2021/04/18 01:47:14;;;;;;;9.93;4.40;;;6.00;99.90;;;;;;5047915;28;20025;-55
2021/04/18 01:49:40;;;;;;;13.32;4.63;;;6.00;99.90;;;;;;5048186;28;20308;-56
2021/04/18 01:52:06;;;;;;;16.55;4.57;;;6.00;99.90;;;;;;5045087;28;20029;-53
2021/04/18 01:54:31;;;;;;;12.82;4.72;;;6.00;99.90;;;;;;5049294;28;20037;-55
2021/04/18 01:56:57;;;;;;;8.73;4.70;;;5.90;99.90;;;;;;5049727;28;20037;-55
2021/04/18 01:59:23;;;;;;;14.35;4.25;;;5.90;99.90;;;;;;5053067;28;20094;-53
2021/04/18 02:01:48;;;;;;;15.77;5.32;;;5.90;99.90;;;;;;5051109;28;20075;-55
2021/04/18 02:04:23;;;;;;;13.15;5.22;;;6.00;99.90;;;;;;5052180;28;20471;-53
2021/04/18 02:06:48;;;;;;;10.52;5.30;;;6.00;99.90;;;;;;5051391;28;20040;-56
2021/04/18 02:09:14;;;;;;;11.23;4.50;;;6.10;99.90;;;;;;5052712;28;20033;-52
2021/04/18 02:11:41;;;;;;;12.32;4.68;;;6.10;99.90;;;;;;5047108;28;20037;-51
2021/04/18 02:14:07;;;;;;;16.77;4.53;;;6.20;99.90;;;;;;5045238;28;20036;-53
2021/04/18 02:16:33;;;;;;;10.57;4.57;;;6.30;99.90;;;;;;5048703;28;20044;-54
2021/04/18 02:18:58;;;;;;;15.07;4.20;;;6.50;99.90;;;;;;5043532;28;20039;-53
2021/04/18 02:21:24;;;;;;;9.85;4.90;;;6.60;99.90;;;;;;5049534;28;20032;-54
2021/04/18 02:23:50;;;;;;;9.88;4.47;;;6.70;99.90;;;;;;5052866;28;20027;-52
2021/04/18 02:26:15;;;;;;;15.10;3.92;;;6.70;99.90;;;;;;5052640;28;20383;-52
2021/04/18 02:28:41;;;;;;;13.35;3.95;;;6.80;99.90;;;;;;5048179;28;20061;-53
2021/04/18 02:31:06;;;;;;;11.35;5.45;;;6.80;99.90;;;;;;5052205;28;20033;-55
2021/04/18 02:33:32;;;;;;;11.48;4.22;;;6.80;99.90;;;;;;5052483;28;20075;-55
2021/04/18 02:35:57;;;;;;;15.40;4.68;;;6.80;99.90;;;;;;5050111;28;20029;-52
2021/04/18 02:38:23;;;;;;;10.57;4.88;;;6.80;99.90;;;;;;5048943;28;20041;-53
2021/04/18 02:40:48;;;;;;;9.63;4.45;;;6.70;99.90;;;;;;5050925;28;20056;-53
2021/04/18 02:43:14;;;;;;;15.48;5.20;;;6.80;99.90;;;;;;5046843;28;20071;-51
2021/04/18 02:45:39;;;;;;;9.93;5.47;;;6.90;99.90;;;;;;5050357;28;20113;-53
2021/04/18 02:48:05;;;;;;;11.52;5.25;;;6.90;99.90;;;;;;5046954;28;20056;-51
2021/04/18 02:50:30;;;;;;;18.33;5.53;;;7.00;99.90;;;;;;5052147;28;20048;-54
2021/04/18 02:52:56;;;;;;;22.50;6.03;;;7.00;99.90;;;;;;5047583;28;20040;-53
2021/04/18 02:55:22;;;;;;;13.93;5.80;;;7.10;99.90;;;;;;5051314;28;20075;-54
2021/04/18 02:57:48;;;;;;;14.65;7.03;;;7.10;99.90;;;;;;5041231;28;20028;-55
2021/04/18 03:00:14;;;;;;;14.52;5.63;;;7.20;99.90;;;;;;5033163;28;20040;-53
2021/04/18 03:02:40;;;;;;;14.18;6.28;;;7.20;99.90;;;;;;5050586;28;20033;-54
2021/04/18 03:05:06;;;;;;;14.90;7.30;;;7.20;99.90;;;;;;5048931;28;20035;-56
2021/04/18 03:07:32;;;;;;;12.82;7.68;;;7.20;99.90;;;;;;5051713;28;20499;-56
2021/04/18 03:09:57;;;;;;;19.63;9.73;;;7.20;99.90;;;;;;5047078;28;20033;-52
2021/04/18 03:12:23;;;;;;;16.85;9.35;;;7.20;99.90;;;;;;5048983;28;20036;-54
2021/04/18 03:14:49;;;;;;;24.23;9.45;;;7.20;99.90;;;;;;5051341;28;20118;-51
2021/04/18 03:17:15;;;;;;;21.73;9.30;;;7.30;99.90;;;;;;5050951;28;20024;-56
2021/04/18 03:19:40;;;;;;;16.00;8.60;;;7.30;99.90;;;;;;5050489;28;20372;-52
2021/04/18 03:22:06;;;;;;;31.90;11.80;;;7.30;99.90;;;;;;5041174;28;20517;-51
2021/04/18 03:24:32;;;;;;;24.30;9.85;;;7.30;99.90;;;;;;5051118;28;20025;-52
2021/04/18 03:26:58;;;;;;;26.30;10.32;;;7.30;99.90;;;;;;5051970;28;20127;-53
2021/04/18 03:29:23;;;;;;;16.77;9.35;;;7.30;99.90;;;;;;5051126;28;20661;-55
2021/04/18 03:31:49;;;;;;;20.52;9.23;;;7.30;99.90;;;;;;5050708;28;20028;-56
2021/04/18 03:34:14;;;;;;;22.73;11.18;;;7.30;99.90;;;;;;5047921;28;20071;-56
2021/04/18 03:36:40;;;;;;;19.17;9.35;;;7.30;99.90;;;;;;5046626;28;20033;-54
2021/04/18 03:39:06;;;;;;;18.42;9.57;;;7.30;99.90;;;;;;5049618;28;20044;-54
2021/04/18 03:41:31;;;;;;;14.65;8.75;;;7.20;99.90;;;;;;5051203;28;20395;-56
2021/04/18 03:43:57;;;;;;;24.20;9.32;;;7.20;99.90;;;;;;5046948;28;20025;-57
2021/04/18 03:46:23;;;;;;;22.35;8.80;;;7.20;99.90;;;;;;5050114;28;20490;-56
2021/04/18 03:48:48;;;;;;;24.58;10.07;;;7.20;99.90;;;;;;5050787;28;20372;-57
2021/04/18 03:51:14;;;;;;;18.17;9.13;;;7.20;99.90;;;;;;5046065;28;20410;-55
2021/04/18 03:53:39;;;;;;;21.83;10.40;;;7.10;99.90;;;;;;5046173;28;20106;-55
2021/04/18 03:56:06;;;;;;;19.75;8.80;;;7.00;99.90;;;;;;5048536;28;20041;-56
2021/04/18 03:58:31;;;;;;;28.30;8.52;;;6.90;99.90;;;;;;5048038;28;20029;-56
2021/04/18 04:00:57;;;;;;;21.55;9.60;;;6.90;99.90;;;;;;5050698;28;20433;-56
2021/04/18 04:03:23;;;;;;;22.45;8.95;;;7.00;99.90;;;;;;5050815;28;20035;-52
2021/04/18 04:05:48;;;;;;;22.98;9.48;;;7.00;99.90;;;;;;5042472;28;20032;-55
2021/04/18 04:08:14;;;;;;;19.10;9.38;;;7.10;99.90;;;;;;5050554;28;20108;-56
2021/04/18 04:10:40;;;;;;;21.00;9.88;;;7.00;99.90;;;;;;5050117;28;20146;-53
2021/04/18 04:13:05;;;;;;;26.73;9.30;;;7.10;99.90;;;;;;5050687;28;20025;-57
2021/04/18 04:15:31;;;;;;;17.27;8.80;;;7.00;99.90;;;;;;5050554;28;20445;-58
2021/04/18 04:17:56;;;;;;;20.50;9.80;;;7.00;99.90;;;;;;5050767;28;20021;-53
2021/04/18 04:20:22;;;;;;;17.80;8.68;;;7.10;99.90;;;;;;5048680;28;20100;-53
2021/04/18 04:22:47;;;;;;;19.73;7.57;;;7.00;99.90;;;;;;5045714;28;20056;-51
2021/04/18 04:25:13;;;;;;;17.75;8.73;;;7.00;99.90;;;;;;5042643;28;20037;-53
2021/04/18 04:27:39;;;;;;;22.00;8.20;;;7.00;99.90;;;;;;5050664;28;20021;-52
2021/04/18 04:30:06;;;;;;;19.38;8.13;;;7.00;99.90;;;;;;5044365;28;20052;-51
2021/04/18 04:32:32;;;;;;;19.73;8.07;;;7.00;99.90;;;;;;5049432;28;20029;-54
2021/04/18 04:34:58;;;;;;;22.05;8.65;;;7.00;99.90;;;;;;5044489;28;20142;-54
2021/04/18 04:37:24;;;;;;;15.35;8.15;;;6.90;99.90;;;;;;5048527;28;20048;-55
2021/04/18 04:39:49;;;;;;;17.15;8.38;;;7.00;99.90;;;;;;5040892;28;20041;-50
2021/04/18 04:42:15;;;;;;;16.60;8.05;;;6.90;99.90;;;;;;5049849;28;20040;-52
2021/04/18 04:44:40;;;;;;;22.42;7.93;;;6.90;99.90;;;;;;5049335;28;20029;-53
2021/04/18 04:47:06;;;;;;;20.45;8.00;;;6.90;99.90;;;;;;5044913;28;20113;-53
2021/04/18 04:49:31;;;;;;;22.60;8.55;;;6.80;99.90;;;;;;5048358;28;20031;-56
2021/04/18 04:51:57;;;;;;;27.67;8.88;;;6.80;99.90;;;;;;5043994;28;20514;-52
2021/04/18 04:54:23;;;;;;;26.23;7.93;;;6.80;99.90;;;;;;5044264;28;20037;-51
2021/04/18 04:56:48;;;;;;;16.52;9.15;;;6.80;99.90;;;;;;5045714;28;20021;-53
2021/04/18 04:59:14;;;;;;;18.23;7.82;;;6.90;99.90;;;;;;5041715;28;20025;-53
2021/04/18 05:01:39;;;;;;;15.27;7.82;;;6.90;99.90;;;;;;5044371;28;20029;-55
2021/04/18 05:04:05;;;;;;;16.55;7.40;;;6.90;99.90;;;;;;5049480;28;20383;-53
2021/04/18 05:06:31;;;;;;;14.52;7.35;;;6.90;99.90;;;;;;5030293;28;20025;-54
2021/04/18 05:08:56;;;;;;;14.18;7.97;;;6.90;99.90;;;;;;5048762;28;20055;-53
2021/04/18 05:11:22;;;;;;;27.02;8.07;;;6.90;99.90;;;;;;5048860;28;20040;-54
2021/04/18 05:13:47;;;;;;;21.13;8.43;;;7.00;99.90;;;;;;5047772;28;20075;-51
2021/04/18 05:16:13;;;;;;;21.55;9.10;;;6.90;99.90;;;;;;5050104;28;20025;-53
2021/04/18 05:18:39;;;;;;;23.77;8.95;;;6.90;99.90;;;;;;5047986;28;20564;-50
2021/04/18 05:21:05;;;;;;;27.83;10.05;;;6.90;99.90;;;;;;5045239;28;20064;-54
2021/04/18 05:23:30;;;;;;;19.08;8.38;;;6.90;99.90;;;;;;5046434;28;20021;-50
2021/04/18 05:25:56;;;;;;;18.75;8.80;;;6.90;99.90;;;;;;5049661;28;20048;-52
2021/04/18 05:28:21;;;;;;;21.20;9.32;;;6.80;99.90;;;;;;5047921;28;20030;-50
2021/04/18 05:30:47;;;;;;;21.88;9.38;;;6.80;99.90;;;;;;5050129;28;20037;-50
2021/04/18 05:33:13;;;;;;;20.50;8.85;;;6.80;99.90;;;;;;5053757;28;20035;-50
2021/04/18 05:35:38;;;;;;;20.35;9.60;;;6.90;99.90;;;;;;5053395;28;20013;-50
2021/04/18 05:38:04;;;;;;;24.02;10.63;;;6.80;99.90;;;;;;5053730;28;20017;-50
2021/04/18 05:40:30;;;;;;;24.27;11.00;;;6.80;99.90;;;;;;5048176;28;20025;-53
2021/04/18 05:42:56;;;;;;;33.33;12.02;;;6.90;99.90;;;;;;5051878;28;20071;-54
2021/04/18 05:45:21;;;;;;;31.67;12.32;;;6.80;99.90;;;;;;5049472;28;20032;-50
2021/04/18 05:47:47;;;;;;;27.67;10.60;;;6.80;99.90;;;;;;5052612;28;20033;-50
2021/04/18 05:50:13;;;;;;;27.83;11.45;;;6.90;99.90;;;;;;5050685;28;20032;-50
2021/04/18 05:52:39;;;;;;;27.55;11.63;;;6.90;99.90;;;;;;5049982;28;20033;-51
2021/04/18 05:55:09;;;;;;;27.58;11.73;;;7.00;99.90;;;;;;5053121;28;20044;-49
2021/04/18 05:57:35;;;;;;;32.80;11.60;;;6.90;99.90;;;;;;5051815;28;20028;-53
2021/04/18 06:00:01;;;;;;;31.83;12.52;;;6.90;99.90;;;;;;5050596;28;20214;-54
2021/04/18 06:02:27;;;;;;;29.00;11.55;;;6.90;99.90;;;;;;5048703;28;20026;-53
2021/04/18 06:04:52;;;;;;;29.40;10.27;;;6.80;99.90;;;;;;5051168;28;20029;-54
2021/04/18 06:07:18;;;;;;;30.10;10.73;;;6.80;99.90;;;;;;5050131;28;20112;-54
2021/04/18 06:09:44;;;;;;;27.90;10.48;;;6.90;99.90;;;;;;5048762;28;20021;-53
2021/04/18 06:12:09;;;;;;;30.98;10.32;;;7.00;99.90;;;;;;5050864;28;20057;-50
2021/04/18 06:14:35;;;;;;;26.83;11.02;;;7.00;99.90;;;;;;5054660;28;20482;-50
2021/04/18 06:17:01;;;;;;;24.73;10.88;;;7.00;99.90;;;;;;5053312;28;20031;-49
2021/04/18 06:19:26;;;;;;;24.35;10.38;;;7.10;99.90;;;;;;5053582;28;20040;-51
2021/04/18 06:21:52;;;;;;;26.50;10.60;;;7.10;99.90;;;;;;5048740;28;20029;-50
2021/04/18 06:24:17;;;;;;;28.00;10.85;;;7.10;99.90;;;;;;5053835;28;20053;-50
2021/04/18 06:26:43;;;;;;;33.42;12.95;;;7.20;99.90;;;;;;5052858;28;20083;-54
2021/04/18 06:29:08;;;;;;;29.10;12.65;;;7.20;99.90;;;;;;5051630;28;20170;-50
2021/04/18 06:31:34;;;;;;;31.23;11.88;;;7.20;99.90;;;;;;5028875;28;20025;-51
2021/04/18 06:34:00;;;;;;;37.05;11.85;;;7.20;99.90;;;;;;5053759;28;20029;-50
2021/04/18 06:36:25;;;;;;;27.38;12.55;;;7.30;99.90;;;;;;5050444;28;20127;-51
2021/04/18 06:38:51;;;;;;;24.88;10.75;;;7.30;99.90;;;;;;5053911;28;20024;-51
2021/04/18 06:41:21;;;;;;;30.45;11.38;;;7.30;99.90;;;;;;5050264;28;20033;-55
2021/04/18 06:43:51;;;;;;;31.92;11.77;;;7.30;99.90;;;;;;5052556;28;20112;-56
2021/04/18 06:46:19;;;;;;;27.88;11.02;;;7.40;99.90;;;;;;5053140;28;20061;-55
2021/04/18 06:48:46;;;;;;;24.58;10.10;;;7.40;99.90;;;;;;5053512;28;20388;-54
2021/04/18 06:51:12;;;;;;;25.08;10.50;;;7.50;99.90;;;;;;5048297;28;20037;-51
2021/04/18 06:53:38;;;;;;;28.70;11.52;;;7.50;99.90;;;;;;5051493;28;20398;-54
2021/04/18 06:56:05;;;;;;;28.30;10.57;;;7.50;99.90;;;;;;5053429;28;20115;-51
2021/04/18 06:58:32;;;;;;;28.30;11.45;;;7.50;99.90;;;;;;5053412;28;20032;-54
2021/04/18 07:00:58;;;;;;;28.02;10.27;;;7.40;99.90;;;;;;5047635;28;20028;-55
2021/04/18 07:03:24;;;;;;;24.98;10.52;;;7.50;99.90;;;;;;5053165;28;20498;-55
2021/04/18 07:05:51;;;;;;;28.30;11.25;;;7.50;99.90;;;;;;5071643;22;21342;-59
2021/04/18 07:08:29;;;;;;;26.00;9.65;;;7.50;99.90;;;;;;5031764;28;20030;-54
2021/04/18 07:11:15;;;;;;;32.13;10.13;;;7.60;99.90;;;;;;5030656;28;20045;-59
2021/04/18 07:13:43;;;;;;;28.13;9.80;;;7.60;99.90;;;;;;5031953;28;20024;-56
2021/04/18 07:16:26;;;;;;;35.97;11.80;;;7.50;99.90;;;;;;5014005;28;20468;-56
2021/04/18 07:18:53;;;;;;;24.85;11.00;;;7.60;99.90;;;;;;5031801;28;20082;-57
2021/04/18 07:21:20;;;;;;;31.05;10.10;;;7.60;99.90;;;;;;5034289;28;20064;-58
2021/04/18 07:23:45;;;;;;;21.92;10.73;;;7.60;99.90;;;;;;5031132;28;20026;-56
2021/04/18 07:26:24;;;;;;;29.13;11.43;;;7.60;99.90;;;;;;5031974;28;20048;-58
2021/04/18 07:28:51;;;;;;;24.38;10.50;;;7.60;99.90;;;;;;5012805;28;20099;-54
2021/04/18 07:31:31;;;;;;;29.58;10.27;;;7.70;99.90;;;;;;5026250;28;20033;-58
2021/04/18 07:34:05;;;;;;;28.15;11.18;;;7.80;99.90;;;;;;5028646;28;20063;-58
2021/04/18 07:36:34;;;;;;;25.77;10.38;;;7.90;99.90;;;;;;5031094;28;20099;-57
2021/04/18 07:38:59;;;;;;;26.40;10.23;;;8.00;99.90;;;;;;5031466;28;20297;-58
2021/04/18 07:41:25;;;;;;;24.48;10.93;;;8.10;99.90;;;;;;5030827;28;20033;-57
2021/04/18 07:43:51;;;;;;;22.42;10.95;;;8.20;99.90;;;;;;5026581;28;20037;-57
2021/04/18 07:46:18;;;;;;;23.95;10.50;;;8.30;99.90;;;;;;5030092;28;20131;-57
2021/04/18 07:48:47;;;;;;;31.00;11.57;;;8.30;99.90;;;;;;5029803;28;20037;-58
2021/04/18 07:51:13;;;;;;;28.98;12.68;;;8.40;99.90;;;;;;5030147;28;20029;-55
2021/04/18 07:53:41;;;;;;;29.42;12.07;;;8.50;99.90;;;;;;5029683;28;20075;-56
2021/04/18 07:56:08;;;;;;;29.48;12.75;;;8.60;99.90;;;;;;5030864;28;20065;-58
2021/04/18 07:58:37;;;;;;;24.20;11.48;;;8.70;99.90;;;;;;5030568;28;20029;-57
2021/04/18 08:01:03;;;;;;;28.70;12.60;;;8.80;99.90;;;;;;5030410;28;20399;-56
2021/04/18 08:03:29;;;;;;;33.95;13.88;;;8.80;99.90;;;;;;5030030;28;20040;-56
2021/04/18 08:05:54;;;;;;;37.92;14.57;;;9.00;99.90;;;;;;5028378;28;20025;-56
2021/04/18 08:08:21;;;;;;;35.60;15.60;;;9.00;99.90;;;;;;5028385;28;20022;-58
2021/04/18 08:10:51;;;;;;;36.70;14.27;;;9.20;99.90;;;;;;5029917;28;20044;-58
2021/04/18 08:13:24;;;;;;;38.47;15.40;;;9.20;99.90;;;;;;5026874;28;20492;-58
2021/04/18 08:15:56;;;;;;;33.17;15.95;;;9.20;99.90;;;;;;5029465;28;20352;-57
2021/04/18 08:18:45;;;;;;;38.38;15.00;;;9.20;99.90;;;;;;5002176;28;20033;-57
2021/04/18 08:21:31;;;;;;;43.97;14.88;;;9.20;99.90;;;;;;5031207;28;20036;-55
2021/04/18 08:23:59;;;;;;;36.55;13.63;;;9.20;99.90;;;;;;5028853;28;20028;-55
2021/04/18 08:26:27;;;;;;;31.23;12.55;;;9.20;99.90;;;;;;5030821;28;20132;-55
2021/04/18 08:31:28;;;;;;;26.50;12.82;;;9.20;99.90;;;;;;5031463;28;20124;-57
2021/04/18 08:33:55;;;;;;;31.25;12.65;;;9.30;99.90;;;;;;5028921;28;20398;-58
2021/04/18 08:36:27;;;;;;;32.67;13.90;;;9.50;99.90;;;;;;5026457;28;20368;-57
2021/04/18 08:39:04;;;;;;;31.63;13.23;;;9.60;99.90;;;;;;5025533;28;20033;-57
2021/04/18 08:41:41;;;;;;;29.15;12.40;;;9.80;99.90;;;;;;5018966;28;20025;-57
2021/04/18 08:44:24;;;;;;;29.75;13.82;;;9.80;99.90;;;;;;5021474;28;20029;-59
2021/04/18 08:46:56;;;;;;;30.92;12.63;;;9.90;99.90;;;;;;5018714;28;20065;-58
2021/04/18 08:49:26;;;;;;;32.65;13.43;;;10.00;99.90;;;;;;5019629;28;20368;-57
2021/04/18 08:51:53;;;;;;;30.77;13.75;;;10.10;99.90;;;;;;5019530;28;20117;-58
2021/04/18 08:54:31;;;;;;;26.95;11.57;;;10.20;99.90;;;;;;5018362;28;20052;-58
2021/04/18 08:57:00;;;;;;;27.23;12.77;;;10.30;99.90;;;;;;5011168;28;20057;-58
2021/04/18 08:59:26;;;;;;;28.80;13.00;;;10.40;99.90;;;;;;5028863;28;20561;-60
2021/04/18 09:02:22;;;;;;;26.70;13.02;;;10.50;99.90;;;;;;5030662;28;20041;-56
2021/04/18 09:04:51;;;;;;;30.52;13.00;;;10.40;99.90;;;;;;5023944;28;20038;-58
2021/04/18 09:07:19;;;;;;;27.75;13.70;;;10.50;99.90;;;;;;5030370;28;20391;-57
2021/04/18 09:09:46;;;;;;;24.75;12.20;;;10.50;99.90;;;;;;5023099;28;20048;-57
2021/04/18 09:12:14;;;;;;;26.45;13.38;;;10.50;99.90;;;;;;5027202;28;20029;-58
2021/04/18 09:14:44;;;;;;;32.45;12.80;;;10.60;99.90;;;;;;5028439;28;20053;-58
2021/04/18 09:17:23;;;;;;;29.50;12.82;;;10.80;99.90;;;;;;5026798;28;20340;-60
2021/04/18 09:19:57;;;;;;;27.73;12.13;;;10.90;99.90;;;;;;5024135;28;20029;-58
2021/04/18 09:22:27;;;;;;;24.83;11.97;;;11.00;99.90;;;;;;5026841;28;20042;-56
2021/04/18 09:24:53;;;;;;;23.65;12.70;;;11.10;99.90;;;;;;5027797;28;20287;-58
2021/04/18 09:27:21;;;;;;;29.73;13.57;;;11.20;99.90;;;;;;5023174;28;20796;-57
2021/04/18 09:29:58;;;;;;;24.05;12.20;;;11.20;99.90;;;;;;5024668;28;20087;-59
2021/04/18 09:32:33;;;;;;;20.83;12.05;;;11.30;99.90;;;;;;5023295;28;20022;-60
2021/04/18 09:34:59;;;;;;;30.38;11.93;;;11.30;99.90;;;;;;5019352;28;20049;-59
2021/04/18 09:37:31;;;;;;;22.52;11.93;;;11.20;99.90;;;;;;5016008;28;20037;-59
2021/04/18 09:39:59;;;;;;;26.60;11.95;;;11.10;99.90;;;;;;5015371;28;20038;-59
2021/04/18 09:42:33;;;;;;;26.80;12.38;;;11.20;99.90;;;;;;5017091;28;20037;-59
2021/04/18 09:45:28;;;;;;;24.17;12.33;;;11.30;99.90;;;;;;5017999;28;20026;-57
2021/04/18 09:48:12;;;;;;;29.42;12.80;;;11.30;99.90;;;;;;5020074;28;20073;-61
2021/04/18 09:50:37;;;;;;;25.15;11.75;;;11.20;99.90;;;;;;5028112;28;20054;-58
2021/04/18 09:53:13;;;;;;;28.92;12.07;;;11.20;99.90;;;;;;5009475;28;20068;-57
2021/04/18 09:55:58;;;;;;;32.25;14.07;;;11.20;99.90;;;;;;5027296;28;20075;-59
2021/04/18 09:58:38;;;;;;;26.42;13.68;;;11.20;99.90;;;;;;5008401;28;20476;-58
2021/04/18 10:01:21;;;;;;;30.85;16.20;;;11.20;99.90;;;;;;5011380;28;20127;-59
2021/04/18 10:03:47;;;;;;;31.58;14.13;;;11.20;99.90;;;;;;5028784;28;20025;-59
2021/04/18 10:06:12;;;;;;;31.80;14.73;;;11.20;99.90;;;;;;5028058;28;20439;-58
2021/04/18 10:08:39;;;;;;;30.42;13.75;;;11.20;99.90;;;;;;5024136;28;20065;-58
2021/04/18 10:11:08;;;;;;;32.83;13.30;;;11.10;99.90;;;;;;5022758;28;20032;-58
2021/04/18 10:13:48;;;;;;;28.70;12.43;;;11.00;99.90;;;;;;5018498;28;20046;-58
2021/04/18 10:16:14;;;;;;;33.70;13.18;;;10.90;99.90;;;;;;5022106;28;20481;-58
2021/04/18 10:18:42;;;;;;;27.00;12.43;;;10.80;99.90;;;;;;5023959;28;20060;-58
2021/04/18 10:21:18;;;;;;;30.83;13.43;;;10.70;99.90;;;;;;5023759;28;20029;-60
2021/04/18 10:23:45;;;;;;;32.42;13.75;;;10.70;99.90;;;;;;5020456;28;20443;-58
2021/04/18 10:26:10;;;;;;;34.10;13.82;;;10.70;99.90;;;;;;5021168;28;20167;-57
2021/04/18 10:28:36;;;;;;;30.73;13.95;;;10.70;99.90;;;;;;5022124;28;20129;-57
2021/04/18 10:31:02;;;;;;;22.05;11.85;;;10.60;99.90;;;;;;5028910;28;20026;-56
2021/04/18 10:33:27;;;;;;;31.05;12.52;;;10.50;99.90;;;;;;5027326;28;20045;-59
2021/04/18 10:35:58;;;;;;;29.85;12.55;;;10.60;99.90;;;;;;5024371;28;20404;-59
2021/04/18 10:38:23;;;;;;;25.02;12.38;;;10.60;99.90;;;;;;5024267;28;20514;-55
2021/04/18 10:40:49;;;;;;;26.23;12.43;;;10.60;99.90;;;;;;5028635;28;20029;-58
2021/04/18 10:43:15;;;;;;;22.15;11.75;;;10.70;99.90;;;;;;5012166;28;20041;-56
2021/04/18 10:45:40;;;;;;;26.38;12.63;;;10.60;99.90;;;;;;5030713;28;20021;-58
2021/04/18 10:48:07;;;;;;;29.13;12.88;;;10.60;99.90;;;;;;5030531;28;20398;-57
2021/04/18 10:50:33;;;;;;;28.30;12.40;;;10.60;99.90;;;;;;5029124;28;20691;-56
2021/04/18 10:52:58;;;;;;;25.33;12.90;;;10.50;99.90;;;;;;5013955;28;20030;-58
2021/04/18 10:55:24;;;;;;;27.45;13.23;;;10.60;99.90;;;;;;5011878;28;20025;-59
2021/04/18 10:57:49;;;;;;;24.55;12.85;;;10.60;99.90;;;;;;5032166;28;20446;-56
2021/04/18 11:00:16;;;;;;;25.17;11.75;;;10.60;99.90;;;;;;5030881;28;20380;-59
2021/04/18 11:02:42;;;;;;;24.33;12.45;;;10.70;99.90;;;;;;5024563;28;20038;-57
2021/04/18 11:05:08;;;;;;;36.35;14.52;;;10.70;99.90;;;;;;5030619;28;20028;-57
2021/04/18 11:07:34;;;;;;;26.08;14.07;;;10.70;99.90;;;;;;5028328;28;20029;-58
2021/04/18 11:09:59;;;;;;;28.52;14.35;;;10.70;99.90;;;;;;5030353;28;20144;-59
2021/04/18 11:12:25;;;;;;;32.67;13.50;;;10.80;99.90;;;;;;5031987;28;20025;-56
2021/04/18 11:14:51;;;;;;;32.17;15.35;;;10.90;99.90;;;;;;5030638;28;20033;-58
2021/04/18 11:17:17;;;;;;;28.42;13.95;;;11.00;99.90;;;;;;5032668;28;20399;-60
2021/04/18 11:19:43;;;;;;;30.27;13.73;;;11.10;99.90;;;;;;5029445;28;20460;-59
2021/04/18 11:22:08;;;;;;;28.17;13.10;;;11.20;99.90;;;;;;5031042;28;20118;-58
2021/04/18 11:24:35;;;;;;;29.40;12.77;;;11.30;99.90;;;;;;5026056;28;20642;-59
2021/04/18 11:27:00;;;;;;;33.03;14.38;;;11.40;99.90;;;;;;5031379;28;20387;-59
2021/04/18 11:29:26;;;;;;;30.80;13.23;;;11.50;99.90;;;;;;5028325;28;20029;-57
2021/04/18 11:31:52;;;;;;;28.13;13.60;;;11.50;99.90;;;;;;5034975;28;20041;-57
2021/04/18 11:34:18;;;;;;;29.17;13.75;;;11.50;99.90;;;;;;5026316;28;20041;-59
2021/04/18 11:36:44;;;;;;;31.10;14.50;;;11.40;99.90;;;;;;5025092;28;20454;-59
2021/04/18 11:39:10;;;;;;;26.48;13.20;;;11.50;99.90;;;;;;5028186;28;20029;-57
2021/04/18 11:41:36;;;;;;;29.13;13.77;;;11.60;99.90;;;;;;5031768;28;20033;-59
2021/04/18 11:44:03;;;;;;;22.70;12.88;;;11.60;99.90;;;;;;5032946;28;20034;-58
2021/04/18 11:46:28;;;;;;;31.50;14.07;;;11.60;99.90;;;;;;5032860;28;20403;-59
2021/04/18 11:48:55;;;;;;;26.35;13.52;;;11.70;99.90;;;;;;5029438;28;20037;-59
2021/04/18 11:51:20;;;;;;;28.48;13.90;;;11.70;99.90;;;;;;5030453;28;20033;-59
2021/04/18 11:53:46;;;;;;;24.90;13.23;;;11.70;99.90;;;;;;5031387;28;20029;-59
2021/04/18 11:56:12;;;;;;;35.25;13.73;;;11.90;99.90;;;;;;5039259;28;20100;-59
2021/04/18 11:58:37;;;;;;;32.53;13.43;;;12.00;99.90;;;;;;5032114;28;20028;-59
2021/04/18 12:01:03;;;;;;;27.08;12.88;;;12.00;99.90;;;;;;5032828;28;20029;-59
2021/04/18 12:03:29;;;;;;;23.83;12.68;;;11.90;99.90;;;;;;5029729;28;20151;-57
2021/04/18 12:05:56;;;;;;;30.17;12.85;;;11.90;99.90;;;;;;5027977;28;20037;-63
2021/04/18 12:08:22;;;;;;;30.65;12.25;;;12.10;99.90;;;;;;5030566;28;20030;-56
2021/04/18 12:10:47;;;;;;;29.52;13.10;;;12.10;99.90;;;;;;5031556;28;20025;-59
2021/04/18 12:13:13;;;;;;;34.90;12.75;;;12.20;99.90;;;;;;5026899;28;20029;-58
2021/04/18 12:15:38;;;;;;;28.73;12.52;;;12.30;99.90;;;;;;5027208;28;20037;-59
2021/04/18 12:18:04;;;;;;;29.80;12.35;;;12.40;99.90;;;;;;5026478;28;20033;-57
2021/04/18 12:20:30;;;;;;;21.83;11.70;;;12.40;99.90;;;;;;5020546;28;20037;-59
2021/04/18 12:22:56;;;;;;;24.58;12.55;;;12.30;99.90;;;;;;5030252;28;20056;-59
2021/04/18 12:25:21;;;;;;;21.92;11.68;;;12.30;99.90;;;;;;5022303;28;20184;-59
2021/04/18 12:27:47;;;;;;;25.25;11.93;;;12.30;99.90;;;;;;5030296;28;20467;-59
2021/04/18 12:30:13;;;;;;;25.92;13.07;;;12.30;99.90;;;;;;5029758;28;20025;-55
2021/04/18 12:32:39;;;;;;;24.08;11.45;;;12.30;99.90;;;;;;5029619;28;20521;-59
2021/04/18 12:35:06;;;;;;;26.02;12.30;;;12.30;99.90;;;;;;5030179;28;20041;-59
2021/04/18 12:37:31;;;;;;;22.10;11.07;;;12.30;99.90;;;;;;5023323;28;20495;-60
2021/04/18 12:39:57;;;;;;;22.75;11.73;;;12.30;99.90;;;;;;5025077;28;20033;-59
2021/04/18 12:42:23;;;;;;;24.60;11.20;;;12.50;99.90;;;;;;5024781;28;20056;-55